Time;durP1;ratioP1;P1;durP2;ratioP2;P2;SDS_P1;SDS_P2;PMS_P1;PMS_P2;Temp;Humidity;BMP_temperature;BMP_pressure;BME280_temperature;BME280_humidity;BME280_pressure;Samples;Min_cycle;Max_cycle;Signal;HPM_P1;HPM_P2
2022/07/17 00:01:40;;;;;;;10.13;3.70;;;21.30;51.10;;;;;;5086905;28;20195;-89
2022/07/17 00:04:07;;;;;;;12.87;4.23;;;21.20;51.00;;;;;;5087641;28;20297;-90
2022/07/17 00:06:37;;;;;;;14.63;4.77;;;21.20;51.20;;;;;;5083746;28;20211;-90
2022/07/17 00:09:06;;;;;;;9.10;3.17;;;21.20;51.40;;;;;;5083908;28;20214;-90
2022/07/17 00:11:35;;;;;;;11.67;4.10;;;21.20;51.50;;;;;;5087598;28;20242;-89
2022/07/17 00:14:02;;;;;;;13.20;4.40;;;21.10;51.60;;;;;;5087602;28;20207;-89
2022/07/17 00:16:31;;;;;;;12.93;4.53;;;21.10;51.50;;;;;;5086908;28;20502;-90
2022/07/17 00:18:58;;;;;;;15.40;3.47;;;21.10;51.70;;;;;;5090479;28;20203;-89
2022/07/17 00:21:26;;;;;;;11.20;3.60;;;21.10;51.70;;;;;;5082916;28;20804;-90
2022/07/17 00:23:53;;;;;;;10.70;3.70;;;21.00;51.80;;;;;;5086382;28;20672;-89
2022/07/17 00:26:21;;;;;;;19.13;5.93;;;21.00;51.70;;;;;;5086128;28;20249;-90
2022/07/17 00:28:48;;;;;;;12.30;4.40;;;21.00;52.00;;;;;;5087005;28;20233;-90
2022/07/17 00:31:15;;;;;;;17.47;5.63;;;20.90;51.90;;;;;;5087133;28;20237;-90
2022/07/17 00:33:45;;;;;;;9.23;3.30;;;20.90;52.00;;;;;;5087560;28;20667;-91
2022/07/17 00:36:12;;;;;;;8.43;3.00;;;20.90;52.90;;;;;;5091644;28;20202;-91
2022/07/17 00:38:39;;;;;;;11.40;4.03;;;20.90;52.20;;;;;;5092368;28;20210;-90
2022/07/17 00:41:06;;;;;;;9.17;3.37;;;20.80;52.20;;;;;;5093247;28;20236;-90
2022/07/17 00:43:41;;;;;;;14.33;4.50;;;20.80;52.40;;;;;;5095962;28;20296;-90
2022/07/17 00:46:08;;;;;;;13.23;3.90;;;20.70;52.60;;;;;;5094694;28;20198;-90
2022/07/17 00:48:35;;;;;;;9.57;3.70;;;20.70;52.40;;;;;;5091372;28;20207;-90
2022/07/17 00:51:05;;;;;;;13.43;3.33;;;20.60;52.40;;;;;;5093386;28;20248;-91
2022/07/17 00:53:33;;;;;;;16.27;5.23;;;20.60;52.70;;;;;;5092375;28;20572;-89
2022/07/17 00:56:02;;;;;;;11.50;3.83;;;20.60;52.70;;;;;;5092683;28;20203;-90
2022/07/17 00:58:31;;;;;;;10.23;4.27;;;20.60;52.90;;;;;;5091295;28;20256;-89
2022/07/17 01:00:58;;;;;;;12.37;4.57;;;20.60;52.80;;;;;;5089364;28;20209;-91
2022/07/17 01:03:26;;;;;;;8.40;3.67;;;20.50;52.70;;;;;;5088013;28;20682;-90
2022/07/17 01:05:54;;;;;;;11.53;4.23;;;20.50;52.40;;;;;;5090101;28;20247;-89
2022/07/17 01:08:22;;;;;;;10.50;3.60;;;20.40;52.30;;;;;;5095085;28;20196;-91
2022/07/17 01:10:59;;;;;;;12.10;4.33;;;20.40;52.40;;;;;;5103944;28;20190;-91
2022/07/17 01:13:47;;;;;;;7.83;2.90;;;20.40;53.00;;;;;;5109179;28;20202;-89
2022/07/17 01:16:14;;;;;;;12.30;3.97;;;20.40;53.00;;;;;;5093323;28;20198;-90
2022/07/17 01:18:45;;;;;;;7.63;3.27;;;20.40;52.80;;;;;;5105285;28;20203;-90
2022/07/17 01:21:15;;;;;;;7.03;3.13;;;20.40;52.60;;;;;;5113029;28;20520;-90
2022/07/17 01:23:44;;;;;;;5.13;2.43;;;20.30;52.50;;;;;;5109182;28;20194;-90
2022/07/17 01:26:15;;;;;;;11.23;3.77;;;20.30;52.90;;;;;;5118301;28;20206;-90
2022/07/17 01:28:43;;;;;;;5.70;2.50;;;20.30;53.20;;;;;;5097415;28;20738;-91
2022/07/17 01:31:10;;;;;;;8.10;3.30;;;20.20;53.10;;;;;;5095106;28;20237;-90
2022/07/17 01:33:41;;;;;;;8.13;3.20;;;20.20;53.20;;;;;;5090794;28;20206;-91
2022/07/17 01:36:08;;;;;;;8.20;3.47;;;20.20;53.30;;;;;;5087983;28;20244;-91
2022/07/17 01:38:38;;;;;;;9.07;3.70;;;20.10;53.30;;;;;;5090651;28;20255;-90
2022/07/17 01:41:27;;;;;;;10.40;3.80;;;20.10;53.50;;;;;;5089618;28;20826;-90
2022/07/17 01:43:54;;;;;;;12.10;4.23;;;20.00;53.50;;;;;;5090329;28;20218;-91
2022/07/17 01:46:21;;;;;;;11.80;4.50;;;20.00;52.90;;;;;;5088482;28;20248;-89
2022/07/17 01:48:49;;;;;;;7.37;3.17;;;20.00;53.30;;;;;;5091249;28;20198;-89
2022/07/17 01:51:18;;;;;;;9.93;3.80;;;20.00;53.70;;;;;;5089570;28;20237;-90
2022/07/17 01:53:46;;;;;;;9.20;4.03;;;19.90;53.80;;;;;;5070810;28;20238;-90
2022/07/17 01:56:19;;;;;;;10.73;4.27;;;19.90;53.80;;;;;;5082536;28;20206;-89
2022/07/17 01:58:49;;;;;;;8.73;3.30;;;19.90;54.10;;;;;;5088282;28;20209;-90
2022/07/17 02:01:16;;;;;;;15.30;5.30;;;19.80;53.50;;;;;;5091056;28;20274;-89
2022/07/17 02:03:57;;;;;;;12.07;4.00;;;19.80;53.70;;;;;;5088720;28;20696;-90
2022/07/17 02:06:27;;;;;;;11.23;4.20;;;19.80;54.40;;;;;;5093105;28;20209;-90
2022/07/17 02:08:55;;;;;;;8.53;3.30;;;19.70;54.10;;;;;;5073596;28;20294;-90
2022/07/17 02:11:22;;;;;;;10.70;3.90;;;19.70;54.10;;;;;;5070249;28;20230;-90
2022/07/17 02:13:49;;;;;;;16.90;5.87;;;19.70;54.10;;;;;;5088220;28;20264;-88
2022/07/17 02:16:16;;;;;;;11.97;4.60;;;19.60;54.10;;;;;;5098179;28;20205;-88
2022/07/17 02:18:44;;;;;;;10.80;3.77;;;19.60;54.30;;;;;;5099204;28;20242;-89
2022/07/17 02:21:11;;;;;;;15.37;5.17;;;19.50;54.40;;;;;;5091918;28;20226;-89
2022/07/17 02:23:39;;;;;;;11.57;4.00;;;19.50;54.50;;;;;;5089531;28;20207;-90
2022/07/17 02:26:10;;;;;;;12.77;4.40;;;19.40;54.60;;;;;;5083530;28;20310;-91
2022/07/17 02:28:40;;;;;;;8.03;3.20;;;19.40;55.10;;;;;;5089571;28;20217;-90
2022/07/17 02:31:10;;;;;;;8.80;3.53;;;19.40;54.80;;;;;;5088879;28;20206;-88
2022/07/17 02:33:40;;;;;;;9.83;3.53;;;19.30;54.80;;;;;;5095268;28;20643;-88
2022/07/17 02:36:14;;;;;;;12.90;4.37;;;19.30;54.90;;;;;;5095553;28;20724;-88
2022/07/17 02:38:43;;;;;;;10.53;3.77;;;19.30;55.20;;;;;;5093122;28;20199;-90
2022/07/17 02:41:12;;;;;;;8.30;3.63;;;19.20;55.00;;;;;;5083140;28;20600;-89
2022/07/17 02:43:43;;;;;;;8.60;3.17;;;19.20;55.10;;;;;;5091571;28;20222;-90
2022/07/17 02:46:10;;;;;;;10.40;4.40;;;19.10;55.00;;;;;;5088784;28;20764;-91
2022/07/17 02:48:38;;;;;;;7.57;3.50;;;19.10;55.00;;;;;;5088114;28;20217;-91
2022/07/17 02:51:06;;;;;;;9.83;3.77;;;19.10;55.20;;;;;;5087596;28;20199;-90
2022/07/17 02:53:39;;;;;;;11.23;4.70;;;19.10;55.30;;;;;;5083504;28;20339;-91
2022/07/17 02:56:06;;;;;;;14.37;5.37;;;19.00;55.30;;;;;;5085308;28;20275;-90
2022/07/17 02:58:36;;;;;;;12.60;4.53;;;19.00;55.30;;;;;;5079903;28;20216;-90
2022/07/17 03:01:17;;;;;;;11.57;4.63;;;19.00;55.70;;;;;;5089246;28;20291;-91
2022/07/17 03:03:44;;;;;;;11.40;4.87;;;18.90;55.90;;;;;;5074223;28;20273;-90
2022/07/17 03:06:11;;;;;;;9.90;4.27;;;19.00;55.60;;;;;;5077352;28;20203;-90
2022/07/17 03:08:38;;;;;;;12.43;4.87;;;18.90;55.70;;;;;;5087019;28;20217;-89
2022/07/17 03:11:05;;;;;;;12.80;4.97;;;18.90;55.80;;;;;;5085814;28;21239;-91
2022/07/17 03:13:33;;;;;;;11.70;4.53;;;18.80;55.80;;;;;;5088648;28;20229;-89
2022/07/17 03:16:01;;;;;;;9.60;4.27;;;18.90;55.90;;;;;;5086488;28;20205;-90
2022/07/17 03:18:29;;;;;;;10.30;4.37;;;18.80;55.80;;;;;;5088990;28;20274;-90
2022/07/17 03:20:56;;;;;;;9.57;3.97;;;18.80;55.80;;;;;;5091434;28;20799;-89
2022/07/17 03:23:23;;;;;;;12.47;5.07;;;18.80;56.00;;;;;;5095662;28;20740;-89
2022/07/17 03:25:52;;;;;;;12.80;4.50;;;18.80;56.00;;;;;;5086667;28;20307;-90
2022/07/17 03:28:19;;;;;;;11.10;4.63;;;18.80;56.00;;;;;;5089886;28;20216;-89
2022/07/17 03:30:49;;;;;;;10.73;4.17;;;18.70;56.00;;;;;;5087885;28;20205;-90
2022/07/17 03:33:20;;;;;;;11.17;4.67;;;18.70;56.10;;;;;;5089716;28;20226;-91
2022/07/17 03:35:47;;;;;;;11.70;4.67;;;18.70;56.30;;;;;;5087935;28;20205;-91
2022/07/17 03:38:14;;;;;;;10.53;3.90;;;18.70;56.20;;;;;;5088863;28;20201;-90
2022/07/17 03:40:41;;;;;;;12.37;4.27;;;18.70;56.30;;;;;;5088683;28;20240;-91
2022/07/17 03:43:15;;;;;;;11.43;4.17;;;18.60;56.20;;;;;;5089836;28;20238;-91
2022/07/17 03:45:43;;;;;;;11.30;4.50;;;18.60;56.70;;;;;;5088245;28;20204;-91
2022/07/17 03:48:10;;;;;;;9.13;3.37;;;18.60;56.40;;;;;;5086468;28;20228;-89
2022/07/17 03:50:40;;;;;;;10.23;4.40;;;18.60;56.40;;;;;;5086028;28;20327;-89
2022/07/17 03:53:07;;;;;;;11.13;4.37;;;18.50;56.60;;;;;;5086689;28;20258;-90
2022/07/17 03:55:34;;;;;;;11.77;4.70;;;18.50;56.40;;;;;;5086415;28;20711;-89
2022/07/17 03:58:01;;;;;;;12.60;4.50;;;18.50;56.50;;;;;;5084619;28;20195;-90
2022/07/17 04:00:28;;;;;;;13.10;4.60;;;18.50;56.60;;;;;;5086457;28;20209;-91
2022/07/17 04:02:56;;;;;;;10.43;4.37;;;18.40;56.50;;;;;;5086926;28;20232;-90
2022/07/17 04:05:25;;;;;;;12.50;4.67;;;18.40;56.50;;;;;;5086768;28;20200;-91
2022/07/17 04:07:54;;;;;;;10.83;4.43;;;18.40;56.50;;;;;;5087443;28;20209;-91
2022/07/17 04:10:21;;;;;;;23.33;7.33;;;18.40;56.60;;;;;;5086541;28;21076;-90
2022/07/17 04:12:48;;;;;;;9.90;3.77;;;18.30;57.10;;;;;;5087807;28;20974;-90
2022/07/17 04:15:49;;;;;;;14.47;5.00;;;18.30;56.60;;;;;;5079491;28;20193;-89
2022/07/17 04:18:09;;;;;;;9.53;4.13;;;18.30;56.80;;;;;;5086148;28;20274;-91
2022/07/17 04:20:36;;;;;;;9.70;3.43;;;18.30;56.90;;;;;;5087171;28;20292;-91
2022/07/17 04:23:05;;;;;;;11.03;4.37;;;18.30;56.90;;;;;;5088374;28;20199;-89
2022/07/17 04:25:33;;;;;;;10.67;4.27;;;18.30;57.20;;;;;;5088451;28;20196;-90
2022/07/17 04:28:01;;;;;;;9.17;3.70;;;18.20;57.10;;;;;;5087723;28;20308;-89
2022/07/17 04:30:33;;;;;;;13.07;4.80;;;18.20;57.30;;;;;;5068236;28;20287;-90
2022/07/17 04:33:00;;;;;;;9.27;3.93;;;18.20;57.40;;;;;;5087767;28;20220;-89
2022/07/17 04:35:27;;;;;;;12.77;5.40;;;18.20;57.40;;;;;;5086082;28;20200;-89
2022/07/17 04:37:54;;;;;;;12.80;5.17;;;18.10;57.40;;;;;;5086316;28;20198;-90
2022/07/17 04:40:25;;;;;;;20.03;7.00;;;18.10;57.60;;;;;;5085921;28;20205;-91
2022/07/17 04:42:52;;;;;;;16.00;5.17;;;18.20;58.00;;;;;;5087199;28;20947;-90
2022/07/17 04:45:22;;;;;;;12.73;5.27;;;18.10;57.80;;;;;;5085509;28;20242;-89
2022/07/17 04:47:49;;;;;;;11.27;4.80;;;18.10;57.90;;;;;;5075974;28;20234;-89
2022/07/17 04:50:16;;;;;;;11.67;4.53;;;18.10;58.00;;;;;;5088729;28;20562;-89
2022/07/17 04:52:45;;;;;;;10.90;4.47;;;18.20;58.10;;;;;;5086955;28;20633;-90
2022/07/17 04:55:13;;;;;;;20.17;7.13;;;18.20;58.20;;;;;;5089518;28;20642;-88
2022/07/17 04:57:50;;;;;;;12.27;4.53;;;18.20;58.30;;;;;;5093378;28;20656;-90
2022/07/17 05:00:17;;;;;;;13.77;5.57;;;18.20;58.40;;;;;;5093081;28;20261;-90
2022/07/17 05:02:45;;;;;;;11.90;4.80;;;18.20;58.40;;;;;;5093595;28;20190;-89
2022/07/17 05:05:13;;;;;;;13.90;5.70;;;18.20;58.50;;;;;;5090042;28;20227;-88
2022/07/17 05:07:40;;;;;;;12.63;5.40;;;18.20;58.50;;;;;;5092799;28;20213;-91
2022/07/17 05:10:08;;;;;;;11.83;4.63;;;18.30;58.60;;;;;;5095668;28;20205;-88
2022/07/17 05:12:43;;;;;;;11.63;5.23;;;18.30;58.60;;;;;;5101868;28;20216;-90
2022/07/17 05:15:11;;;;;;;11.87;4.53;;;18.30;59.10;;;;;;5116441;27;20203;-87
2022/07/17 05:17:41;;;;;;;13.93;5.30;;;18.30;58.80;;;;;;5102686;28;20198;-89
2022/07/17 05:20:09;;;;;;;12.53;5.63;;;18.30;58.80;;;;;;5078423;28;20209;-89
2022/07/17 05:22:36;;;;;;;16.63;6.37;;;18.40;58.80;;;;;;5078114;28;20206;-90
2022/07/17 05:25:03;;;;;;;11.53;5.00;;;18.40;58.70;;;;;;5091883;28;20213;-89
2022/07/17 05:27:39;;;;;;;18.43;6.30;;;18.40;58.50;;;;;;5090530;28;20213;-89
2022/07/17 05:30:10;;;;;;;13.03;4.93;;;18.50;58.80;;;;;;5092093;28;20250;-90
2022/07/17 05:32:38;;;;;;;9.70;4.83;;;18.50;58.80;;;;;;5088910;28;20259;-90
2022/07/17 05:35:06;;;;;;;15.90;6.73;;;18.60;58.40;;;;;;5078927;28;20649;-90
2022/07/17 05:37:36;;;;;;;21.97;6.63;;;18.60;58.30;;;;;;5089691;28;20356;-90
2022/07/17 05:40:04;;;;;;;12.40;5.70;;;18.70;58.40;;;;;;5080525;28;20706;-89
2022/07/17 05:42:34;;;;;;;12.30;5.27;;;18.70;58.40;;;;;;5090724;28;20229;-90
2022/07/17 05:45:04;;;;;;;13.63;5.70;;;18.70;58.40;;;;;;5074399;28;20190;-91
2022/07/17 05:47:32;;;;;;;13.17;5.77;;;18.80;58.50;;;;;;5081176;28;20213;-89
2022/07/17 05:49:59;;;;;;;13.30;5.43;;;18.80;58.50;;;;;;5070480;28;20221;-89
2022/07/17 05:52:28;;;;;;;12.60;5.87;;;18.90;58.50;;;;;;5084675;28;20366;-89
2022/07/17 05:54:55;;;;;;;16.47;6.53;;;18.90;58.60;;;;;;5089987;28;20261;-90
2022/07/17 05:57:25;;;;;;;12.23;5.43;;;18.90;58.60;;;;;;5088851;28;21054;-88
2022/07/17 05:59:52;;;;;;;10.03;5.47;;;19.00;58.80;;;;;;5088825;28;20242;-90
2022/07/17 06:02:19;;;;;;;15.60;6.60;;;19.00;58.70;;;;;;5088022;28;20210;-89
2022/07/17 06:04:50;;;;;;;12.43;5.73;;;19.00;58.70;;;;;;5111305;28;20208;-91
2022/07/17 06:07:18;;;;;;;12.53;5.20;;;19.10;58.80;;;;;;5089960;28;21003;-89
2022/07/17 06:09:45;;;;;;;18.13;6.40;;;19.10;58.90;;;;;;5089577;28;20229;-89
2022/07/17 06:12:12;;;;;;;11.67;5.03;;;19.10;58.90;;;;;;5090296;28;20845;-89
2022/07/17 06:14:40;;;;;;;13.33;5.00;;;19.10;58.70;;;;;;5098721;22;20269;-89
2022/07/17 06:17:07;;;;;;;10.47;4.77;;;19.20;58.70;;;;;;5107988;28;20360;-89
2022/07/17 06:19:34;;;;;;;14.43;6.10;;;19.30;58.70;;;;;;5107851;28;20213;-89
2022/07/17 06:22:20;;;;;;;11.83;5.07;;;19.30;58.70;;;;;;5109593;28;20278;-88
2022/07/17 06:24:47;;;;;;;10.60;4.63;;;19.30;59.30;;;;;;5133146;22;21003;-91
2022/07/17 06:27:15;;;;;;;9.87;4.90;;;19.40;58.80;;;;;;5089180;28;20244;-91
2022/07/17 06:29:46;;;;;;;16.23;6.37;;;19.40;58.60;;;;;;5088769;28;20334;-89
2022/07/17 06:32:13;;;;;;;10.37;5.00;;;19.50;58.80;;;;;;5089285;28;20202;-90
2022/07/17 06:34:42;;;;;;;14.07;6.07;;;19.50;58.80;;;;;;5089118;28;20250;-92
2022/07/17 06:37:10;;;;;;;10.27;5.03;;;19.50;58.70;;;;;;5076480;28;20208;-90
2022/07/17 06:39:38;;;;;;;15.67;4.90;;;19.50;58.50;;;;;;5089545;28;20297;-92
2022/07/17 06:42:10;;;;;;;10.47;5.10;;;19.60;58.80;;;;;;5084396;28;20271;-91
2022/07/17 06:44:37;;;;;;;11.77;5.13;;;19.60;58.80;;;;;;5071198;28;20298;-89
2022/07/17 06:47:16;;;;;;;17.03;5.80;;;19.60;58.80;;;;;;5071562;28;20238;-91
2022/07/17 06:49:53;;;;;;;12.43;5.33;;;19.70;59.00;;;;;;5089073;28;20562;-90
2022/07/17 06:52:23;;;;;;;18.70;6.50;;;19.80;59.00;;;;;;5088760;28;20293;-89
2022/07/17 06:54:51;;;;;;;12.43;4.83;;;19.80;59.00;;;;;;5069771;28;20227;-90
2022/07/17 06:57:18;;;;;;;7.70;4.10;;;19.80;58.80;;;;;;5090267;28;20256;-89
2022/07/17 06:59:46;;;;;;;15.10;5.77;;;19.90;58.60;;;;;;5089522;28;20195;-90
2022/07/17 07:04:55;;;;;;;12.77;4.90;;;20.00;58.60;;;;;;5081193;28;20583;-91
2022/07/17 07:07:22;;;;;;;19.97;6.80;;;20.10;58.60;;;;;;5086388;28;20207;-91
2022/07/17 07:09:52;;;;;;;12.23;4.30;;;20.20;58.70;;;;;;5087608;28;20207;-91
2022/07/17 07:12:19;;;;;;;8.53;4.23;;;20.30;58.80;;;;;;5088118;28;20205;-93
2022/07/17 07:14:46;;;;;;;12.47;4.47;;;20.40;58.70;;;;;;5088143;28;20317;-90
2022/07/17 07:17:13;;;;;;;11.30;3.97;;;20.40;58.60;;;;;;5088304;28;20195;-92
2022/07/17 07:19:40;;;;;;;10.47;4.07;;;20.50;58.60;;;;;;5089642;28;20294;-90
2022/07/17 07:22:07;;;;;;;8.93;3.67;;;20.60;58.50;;;;;;5087703;28;20290;-90
2022/07/17 07:24:37;;;;;;;10.10;4.27;;;20.60;58.30;;;;;;5088452;28;20618;-91
2022/07/17 07:27:06;;;;;;;9.70;3.57;;;20.80;58.50;;;;;;5089085;28;20207;-90
2022/07/17 07:29:33;;;;;;;12.53;4.57;;;20.80;58.40;;;;;;5086366;28;20924;-89
2022/07/17 07:32:03;;;;;;;12.10;4.57;;;20.90;58.30;;;;;;5088607;28;20203;-91
2022/07/17 07:34:30;;;;;;;11.90;4.93;;;21.00;58.10;;;;;;5084877;28;20221;-91
2022/07/17 07:36:58;;;;;;;9.83;4.23;;;21.10;58.00;;;;;;5088762;28;20248;-88
2022/07/17 07:39:27;;;;;;;12.47;4.87;;;21.20;58.00;;;;;;5095733;28;20213;-87
2022/07/17 07:41:55;;;;;;;10.33;3.63;;;21.20;57.90;;;;;;5088414;28;20218;-88
2022/07/17 07:44:23;;;;;;;11.43;4.77;;;21.40;58.00;;;;;;5091085;28;20214;-88
2022/07/17 07:46:51;;;;;;;10.90;4.43;;;21.50;58.00;;;;;;5088002;28;20231;-89
2022/07/17 07:49:18;;;;;;;12.00;4.37;;;21.60;58.00;;;;;;5089330;28;20326;-88
2022/07/17 07:51:51;;;;;;;9.47;3.83;;;21.60;57.80;;;;;;5091301;28;20193;-90
2022/07/17 07:54:18;;;;;;;11.00;4.13;;;21.70;57.50;;;;;;5088361;28;20240;-88
2022/07/17 07:56:45;;;;;;;8.73;3.67;;;21.80;57.30;;;;;;5089594;28;20248;-86
2022/07/17 07:59:12;;;;;;;11.00;4.03;;;21.90;57.30;;;;;;5092405;28;20247;-87
2022/07/17 08:01:49;;;;;;;10.90;3.70;;;22.00;57.20;;;;;;5091051;28;20263;-88
2022/07/17 08:04:16;;;;;;;13.13;3.87;;;22.10;56.70;;;;;;5072367;28;20205;-91
2022/07/17 08:06:44;;;;;;;9.90;3.47;;;22.20;56.90;;;;;;5088259;28;20284;-89
2022/07/17 08:09:11;;;;;;;10.47;3.37;;;22.30;57.00;;;;;;5089763;28;20266;-89
2022/07/17 08:11:39;;;;;;;12.60;3.73;;;22.40;56.80;;;;;;5089299;28;20681;-89
2022/07/17 08:17:07;;;;;;;5.93;2.00;;;22.60;56.00;;;;;;5111031;22;20230;-92
2022/07/17 08:19:35;;;;;;;10.93;4.27;;;22.70;56.30;;;;;;5088104;28;20226;-88
2022/07/17 08:22:04;;;;;;;7.57;2.93;;;22.80;56.10;;;;;;5085411;28;20689;-90
2022/07/17 08:24:32;;;;;;;9.80;3.60;;;22.90;56.00;;;;;;5086743;28;20917;-88
2022/07/17 08:27:00;;;;;;;13.43;4.33;;;23.00;55.90;;;;;;5087734;28;20197;-88
2022/07/17 08:29:27;;;;;;;11.13;4.33;;;23.10;55.90;;;;;;5086763;28;20303;-88
2022/07/17 08:31:55;;;;;;;15.23;5.53;;;23.20;56.20;;;;;;5080170;28;20217;-91
2022/07/17 08:34:26;;;;;;;8.23;2.83;;;23.30;55.80;;;;;;5081663;28;20227;-89
2022/07/17 08:36:53;;;;;;;13.13;4.63;;;23.40;55.50;;;;;;5085580;28;20249;-92
2022/07/17 08:39:23;;;;;;;8.00;2.87;;;23.50;55.70;;;;;;5095282;28;20203;-91
2022/07/17 08:41:51;;;;;;;10.17;3.50;;;23.60;55.50;;;;;;5084544;28;20215;-90
2022/07/17 08:44:18;;;;;;;10.47;3.50;;;23.70;55.60;;;;;;5077693;28;20294;-90
2022/07/17 08:46:45;;;;;;;9.00;3.97;;;23.80;55.70;;;;;;5083410;28;20199;-89
2022/07/17 08:49:14;;;;;;;7.70;3.10;;;23.90;55.60;;;;;;5081181;28;20233;-88
2022/07/17 08:51:44;;;;;;;8.73;3.73;;;24.10;55.60;;;;;;5084791;28;20251;-91
2022/07/17 08:54:13;;;;;;;7.67;3.43;;;24.20;54.90;;;;;;5078925;28;20274;-91
2022/07/17 08:56:40;;;;;;;15.00;5.70;;;24.40;55.40;;;;;;5080264;28;20238;-91
2022/07/17 08:59:07;;;;;;;4.93;2.67;;;24.60;55.20;;;;;;5082995;28;20199;-92
2022/07/17 09:01:35;;;;;;;10.07;3.67;;;24.80;55.00;;;;;;5077577;28;20244;-89
2022/07/17 09:04:06;;;;;;;8.97;3.83;;;25.00;54.80;;;;;;5081543;28;20624;-92
2022/07/17 09:06:36;;;;;;;10.77;4.40;;;25.20;54.40;;;;;;5078472;28;20222;-89
2022/07/17 09:09:09;;;;;;;8.70;3.53;;;25.40;54.30;;;;;;5075723;28;20631;-92
2022/07/17 09:11:44;;;;;;;10.90;4.73;;;25.60;53.90;;;;;;5079053;28;20199;-89
2022/07/17 09:14:22;;;;;;;8.30;4.17;;;25.90;53.30;;;;;;5084595;28;20252;-91
2022/07/17 09:16:55;;;;;;;11.00;4.43;;;26.20;52.80;;;;;;5081634;28;20207;-90
2022/07/17 09:19:27;;;;;;;11.20;4.53;;;26.40;52.80;;;;;;5080574;28;20267;-91
2022/07/17 09:22:05;;;;;;;7.93;2.83;;;26.60;52.40;;;;;;5088437;28;20223;-90
2022/07/17 09:24:50;;;;;;;5.70;2.47;;;26.80;51.80;;;;;;5087314;28;20205;-90
2022/07/17 09:27:31;;;;;;;6.13;1.83;;;27.10;51.10;;;;;;5090678;28;20346;-90
2022/07/17 09:30:09;;;;;;;5.83;2.67;;;27.30;50.60;;;;;;5094556;28;20318;-94
2022/07/17 09:32:38;;;;;;;8.47;3.23;;;27.50;50.40;;;;;;5090919;28;20203;-92
2022/07/17 09:35:08;;;;;;;6.53;3.10;;;27.70;51.10;;;;;;5089733;28;20218;-92
2022/07/17 09:37:37;;;;;;;8.27;3.70;;;27.80;50.20;;;;;;5091975;28;20209;-90
2022/07/17 09:40:10;;;;;;;5.30;2.80;;;28.00;50.50;;;;;;5091888;28;20222;-89
2022/07/17 09:42:37;;;;;;;9.20;4.07;;;28.20;49.30;;;;;;5090656;28;20289;-92
2022/07/17 09:45:06;;;;;;;7.50;3.43;;;28.40;50.00;;;;;;5086907;28;20294;-90
2022/07/17 09:47:36;;;;;;;8.70;3.37;;;28.50;48.80;;;;;;5090876;28;20305;-92
2022/07/17 09:50:08;;;;;;;6.17;3.17;;;28.60;48.70;;;;;;5092426;28;20264;-92
2022/07/17 09:52:38;;;;;;;6.90;3.30;;;28.80;49.20;;;;;;5092447;28;20199;-92
2022/07/17 09:55:06;;;;;;;8.33;3.43;;;28.90;49.00;;;;;;5091248;28;20231;-90
2022/07/17 09:57:50;;;;;;;6.97;3.23;;;29.00;48.40;;;;;;5090022;28;20202;-92
2022/07/17 10:00:18;;;;;;;7.50;3.47;;;29.20;48.00;;;;;;5091547;28;20212;-91
2022/07/17 10:02:46;;;;;;;6.23;2.97;;;29.30;48.20;;;;;;5082752;28;20202;-91
2022/07/17 10:05:16;;;;;;;9.77;3.87;;;29.40;47.70;;;;;;5070676;28;20207;-91
2022/07/17 10:07:45;;;;;;;7.70;3.50;;;29.50;47.20;;;;;;5070338;28;20579;-91
2022/07/17 10:10:13;;;;;;;7.17;3.03;;;29.60;47.50;;;;;;5070169;28;20215;-92
2022/07/17 10:12:44;;;;;;;10.03;3.90;;;29.60;46.90;;;;;;5075544;28;20291;-93
2022/07/17 10:15:13;;;;;;;5.90;3.10;;;29.80;46.70;;;;;;5095320;28;20222;-90
2022/07/17 10:17:42;;;;;;;8.33;3.67;;;29.80;46.70;;;;;;5094655;28;20205;-90
2022/07/17 10:20:11;;;;;;;5.23;2.93;;;29.90;46.40;;;;;;5092002;28;20202;-91
2022/07/17 10:22:43;;;;;;;9.20;4.93;;;30.10;46.40;;;;;;5081061;28;20199;-88
2022/07/17 10:25:14;;;;;;;9.23;4.20;;;30.20;45.50;;;;;;5073466;28;20876;-90
2022/07/17 10:27:48;;;;;;;8.15;4.50;;;30.30;45.40;;;;;;5073721;28;20283;-92
2022/07/17 10:30:23;;;;;;;8.80;4.55;;;30.40;44.70;;;;;;5073772;28;20198;-89
2022/07/17 10:32:58;;;;;;;9.70;5.07;;;30.50;44.30;;;;;;5083077;28;20211;-91
2022/07/17 10:35:25;;;;;;;4.95;3.25;;;30.60;43.90;;;;;;5070444;28;20235;-90
2022/07/17 10:38:10;;;;;;;8.13;4.32;;;30.70;44.10;;;;;;5070683;28;20281;-90
2022/07/17 10:40:37;;;;;;;9.55;4.55;;;30.80;43.70;;;;;;5087031;28;20325;-91
2022/07/17 10:43:06;;;;;;;10.05;4.65;;;30.90;44.00;;;;;;5092766;28;20199;-90
2022/07/17 10:45:35;;;;;;;8.85;4.25;;;31.00;43.30;;;;;;5085775;28;20283;-91
2022/07/17 10:48:05;;;;;;;6.93;4.00;;;31.10;43.30;;;;;;5087359;28;20215;-92
2022/07/17 10:50:36;;;;;;;7.22;3.95;;;31.20;42.20;;;;;;5069323;28;20204;-90
2022/07/17 10:53:06;;;;;;;8.00;3.85;;;31.30;42.60;;;;;;5083105;28;20225;-90
2022/07/17 10:55:35;;;;;;;7.55;3.92;;;31.30;42.10;;;;;;5089317;28;20257;-90
2022/07/17 10:58:05;;;;;;;7.95;3.83;;;31.40;41.80;;;;;;5089480;28;20722;-89
2022/07/17 11:00:32;;;;;;;6.72;3.20;;;31.40;41.70;;;;;;5089338;28;20191;-90
2022/07/17 11:03:09;;;;;;;7.65;4.07;;;31.40;42.20;;;;;;5086670;28;20287;-89
2022/07/17 11:05:36;;;;;;;9.45;4.43;;;31.40;40.80;;;;;;5089194;28;20234;-90
2022/07/17 11:08:09;;;;;;;7.53;4.07;;;31.50;41.90;;;;;;5086879;28;20637;-92
2022/07/17 11:10:39;;;;;;;9.63;4.55;;;31.50;41.70;;;;;;5089860;28;20213;-90
2022/07/17 11:13:14;;;;;;;15.38;7.53;;;31.60;41.20;;;;;;5086415;28;20198;-89
2022/07/17 11:15:43;;;;;;;10.75;4.68;;;31.60;41.00;;;;;;5085996;28;20328;-89
2022/07/17 11:18:16;;;;;;;9.27;4.80;;;31.60;41.90;;;;;;5089487;28;20187;-89
2022/07/17 11:20:55;;;;;;;9.15;5.22;;;31.70;40.80;;;;;;5088013;28;20206;-89
2022/07/17 11:23:23;;;;;;;7.57;4.55;;;31.80;39.90;;;;;;5087699;28;20252;-90
2022/07/17 11:25:59;;;;;;;10.73;5.28;;;31.90;41.20;;;;;;5088200;28;20244;-88
2022/07/17 11:28:33;;;;;;;8.02;4.55;;;32.00;40.10;;;;;;5088724;28;20226;-90
2022/07/17 11:31:01;;;;;;;8.15;4.28;;;32.10;40.00;;;;;;5088295;28;20202;-90
2022/07/17 11:33:31;;;;;;;6.90;4.07;;;32.10;40.60;;;;;;5088379;28;20210;-89
2022/07/17 11:35:59;;;;;;;7.40;4.35;;;32.20;40.50;;;;;;5088128;28;20218;-90
2022/07/17 11:38:38;;;;;;;6.43;3.80;;;32.40;40.50;;;;;;5087622;28;20207;-90
2022/07/17 11:41:05;;;;;;;9.05;4.30;;;32.40;39.00;;;;;;5088322;28;20199;-90
2022/07/17 11:43:42;;;;;;;7.53;4.07;;;32.50;39.70;;;;;;5088198;28;20207;-91
2022/07/17 11:46:14;;;;;;;9.60;4.97;;;32.60;38.90;;;;;;5088197;28;20666;-91
2022/07/17 11:48:42;;;;;;;7.25;4.32;;;32.70;39.30;;;;;;5088367;28;20218;-91
2022/07/17 11:51:09;;;;;;;8.73;4.00;;;32.80;39.20;;;;;;5087820;28;20610;-90
2022/07/17 11:53:38;;;;;;;10.20;4.93;;;32.80;38.40;;;;;;5088097;28;20273;-90
2022/07/17 11:56:06;;;;;;;7.75;4.53;;;32.90;38.30;;;;;;5088095;28;20718;-90
2022/07/17 11:58:45;;;;;;;8.65;4.32;;;33.00;38.60;;;;;;5088686;28;20230;-91
2022/07/17 12:01:13;;;;;;;7.70;4.68;;;33.10;38.20;;;;;;5082841;28;20209;-90
2022/07/17 12:03:40;;;;;;;8.00;4.80;;;33.10;38.70;;;;;;5087829;28;20260;-92
2022/07/17 12:06:08;;;;;;;7.82;4.35;;;33.20;38.40;;;;;;5087538;28;20198;-90
2022/07/17 12:08:37;;;;;;;7.75;4.45;;;33.20;37.80;;;;;;5088045;28;20208;-90
2022/07/17 12:11:08;;;;;;;10.10;5.78;;;33.30;37.60;;;;;;5086058;28;20781;-90
2022/07/17 12:13:44;;;;;;;6.82;4.28;;;33.40;37.00;;;;;;5086645;28;20569;-90
2022/07/17 12:16:29;;;;;;;11.48;5.85;;;33.50;36.50;;;;;;5086033;28;20234;-89
2022/07/17 12:19:11;;;;;;;12.43;6.68;;;33.60;36.00;;;;;;5082949;28;20201;-92
2022/07/17 12:21:54;;;;;;;9.38;4.68;;;33.60;36.30;;;;;;5086132;28;20203;-89
2022/07/17 12:24:27;;;;;;;7.97;4.68;;;33.70;35.90;;;;;;5086546;28;20305;-88
2022/07/17 12:26:55;;;;;;;20.00;10.32;;;33.80;36.70;;;;;;5077444;28;20238;-89
2022/07/17 12:29:25;;;;;;;9.15;4.78;;;33.90;36.50;;;;;;5084633;28;20739;-91
2022/07/17 12:32:02;;;;;;;6.75;4.35;;;33.90;36.20;;;;;;5086714;28;20206;-88
2022/07/17 12:34:29;;;;;;;12.32;4.82;;;33.90;35.60;;;;;;5085583;28;20285;-90
2022/07/17 12:36:56;;;;;;;12.68;5.07;;;34.00;36.40;;;;;;5086894;28;20782;-90
2022/07/17 12:39:23;;;;;;;7.00;4.55;;;34.00;36.10;;;;;;5086460;28;20263;-88
2022/07/17 12:41:53;;;;;;;6.53;4.07;;;34.10;35.90;;;;;;5086696;28;20256;-89
2022/07/17 12:44:20;;;;;;;11.02;5.03;;;34.20;36.10;;;;;;5086238;28;20199;-90
2022/07/17 12:46:49;;;;;;;6.72;4.28;;;34.20;35.60;;;;;;5087346;28;20849;-90
2022/07/17 12:49:17;;;;;;;7.68;4.75;;;34.30;35.10;;;;;;5086268;28;20202;-90
2022/07/17 12:51:47;;;;;;;8.15;4.68;;;34.40;35.00;;;;;;5087131;28;20207;-88
2022/07/17 12:54:14;;;;;;;7.95;3.88;;;34.50;33.70;;;;;;5086018;28;20597;-89
2022/07/17 12:56:41;;;;;;;8.48;5.22;;;34.50;34.30;;;;;;5063408;28;20261;-88
2022/07/17 12:59:08;;;;;;;6.45;4.15;;;34.50;34.10;;;;;;5086886;28;20280;-87